sensor_id;sensor_type;location;lat;lon;timestamp;pressure;altitude;pressure_sealevel;temperature;humidity
54918;BME280;40818;50.562;7.454;2024-02-21T00:06:55;98486.53;;;5.56;100.00
54918;BME280;40818;50.562;7.454;2024-02-21T00:17:01;98481.50;;;5.53;100.00
54918;BME280;40818;50.562;7.454;2024-02-21T00:27:04;98463.47;;;5.53;100.00
54918;BME280;40818;50.562;7.454;2024-02-21T00:37:10;98449.72;;;5.52;100.00
54918;BME280;40818;50.562;7.454;2024-02-21T00:47:14;98436.72;;;5.57;100.00
54918;BME280;40818;50.562;7.454;2024-02-21T00:57:20;98429.88;;;5.56;100.00
54918;BME280;40818;50.562;7.454;2024-02-21T01:07:24;98428.06;;;5.58;100.00
54918;BME280;40818;50.562;7.454;2024-02-21T01:17:30;98431.66;;;5.54;100.00
54918;BME280;40818;50.562;7.454;2024-02-21T01:27:33;98432.63;;;5.50;100.00
54918;BME280;40818;50.562;7.454;2024-02-21T01:37:39;98415.25;;;5.31;100.00
54918;BME280;40818;50.562;7.454;2024-02-21T01:47:43;98391.19;;;5.32;100.00
54918;BME280;40818;50.562;7.454;2024-02-21T01:57:49;98368.00;;;5.32;100.00
54918;BME280;40818;50.562;7.454;2024-02-21T02:07:52;98372.34;;;5.30;100.00
54918;BME280;40818;50.562;7.454;2024-02-21T02:17:58;98365.44;;;5.32;100.00
54918;BME280;40818;50.562;7.454;2024-02-21T02:28:06;98343.31;;;5.26;100.00
54918;BME280;40818;50.562;7.454;2024-02-21T02:38:09;98329.56;;;5.27;100.00
54918;BME280;40818;50.562;7.454;2024-02-21T02:48:16;98299.56;;;5.26;100.00
54918;BME280;40818;50.562;7.454;2024-02-21T02:58:20;98287.75;;;5.21;100.00
54918;BME280;40818;50.562;7.454;2024-02-21T03:08:26;98287.69;;;5.22;100.00
54918;BME280;40818;50.562;7.454;2024-02-21T03:18:30;98282.72;;;5.16;100.00
54918;BME280;40818;50.562;7.454;2024-02-21T03:28:36;98301.66;;;5.15;100.00
54918;BME280;40818;50.562;7.454;2024-02-21T03:38:40;98271.59;;;5.16;100.00
54918;BME280;40818;50.562;7.454;2024-02-21T03:48:46;98244.91;;;5.18;100.00
54918;BME280;40818;50.562;7.454;2024-02-21T03:58:49;98235.41;;;5.20;100.00
54918;BME280;40818;50.562;7.454;2024-02-21T04:08:57;98215.56;;;5.24;100.00
54918;BME280;40818;50.562;7.454;2024-02-21T04:19:00;98199.41;;;5.19;100.00
54918;BME280;40818;50.562;7.454;2024-02-21T04:29:06;98213.41;;;5.11;100.00
54918;BME280;40818;50.562;7.454;2024-02-21T04:39:10;98220.13;;;5.16;100.00
54918;BME280;40818;50.562;7.454;2024-02-21T04:49:16;98226.22;;;5.13;100.00
54918;BME280;40818;50.562;7.454;2024-02-21T04:59:19;98212.47;;;5.14;100.00
54918;BME280;40818;50.562;7.454;2024-02-21T05:09:25;98187.69;;;5.11;100.00
54918;BME280;40818;50.562;7.454;2024-02-21T05:19:28;98190.31;;;5.10;100.00
54918;BME280;40818;50.562;7.454;2024-02-21T05:29:35;98178.31;;;5.09;100.00
54918;BME280;40818;50.562;7.454;2024-02-21T05:39:38;98172.13;;;5.15;100.00
54918;BME280;40818;50.562;7.454;2024-02-21T05:49:44;98180.75;;;5.13;100.00
54918;BME280;40818;50.562;7.454;2024-02-21T05:59:48;98158.69;;;5.06;100.00
54918;BME280;40818;50.562;7.454;2024-02-21T06:09:54;98148.31;;;5.09;100.00
54918;BME280;40818;50.562;7.454;2024-02-21T06:19:57;98143.03;;;5.12;100.00
54918;BME280;40818;50.562;7.454;2024-02-21T06:30:04;98150.69;;;5.14;100.00
54918;BME280;40818;50.562;7.454;2024-02-21T06:40:08;98155.09;;;5.10;100.00
54918;BME280;40818;50.562;7.454;2024-02-21T06:50:15;98145.72;;;5.09;100.00
54918;BME280;40818;50.562;7.454;2024-02-21T07:00:19;98149.00;;;5.13;100.00
54918;BME280;40818;50.562;7.454;2024-02-21T07:10:25;98144.75;;;5.12;100.00
54918;BME280;40818;50.562;7.454;2024-02-21T07:20:29;98141.34;;;5.11;100.00
54918;BME280;40818;50.562;7.454;2024-02-21T07:30:36;98118.00;;;5.16;100.00
54918;BME280;40818;50.562;7.454;2024-02-21T07:40:40;98112.03;;;5.16;100.00
54918;BME280;40818;50.562;7.454;2024-02-21T07:50:47;98099.59;;;5.27;100.00
54918;BME280;40818;50.562;7.454;2024-02-21T08:00:50;98096.75;;;5.35;100.00
54918;BME280;40818;50.562;7.454;2024-02-21T08:10:59;98089.44;;;5.46;100.00
54918;BME280;40818;50.562;7.454;2024-02-21T08:21:03;98088.03;;;5.59;100.00
54918;BME280;40818;50.562;7.454;2024-02-21T08:31:10;98085.91;;;5.91;100.00
54918;BME280;40818;50.562;7.454;2024-02-21T08:41:14;98059.59;;;6.26;100.00
54918;BME280;40818;50.562;7.454;2024-02-21T08:51:20;98029.56;;;6.64;100.00
54918;BME280;40818;50.562;7.454;2024-02-21T09:01:23;98016.88;;;6.79;100.00
54918;BME280;40818;50.562;7.454;2024-02-21T09:11:29;97995.50;;;6.94;100.00
54918;BME280;40818;50.562;7.454;2024-02-21T09:21:33;97992.00;;;7.14;100.00
54918;BME280;40818;50.562;7.454;2024-02-21T09:31:40;97978.69;;;7.41;100.00
54918;BME280;40818;50.562;7.454;2024-02-21T09:41:45;97962.44;;;7.39;100.00
54918;BME280;40818;50.562;7.454;2024-02-21T09:51:55;97944.34;;;7.39;100.00
54918;BME280;40818;50.562;7.454;2024-02-21T10:02:00;97931.44;;;7.39;100.00
54918;BME280;40818;50.562;7.454;2024-02-21T10:12:12;97917.28;;;7.29;100.00
54918;BME280;40818;50.562;7.454;2024-02-21T10:22:19;97900.72;;;7.33;100.00
54918;BME280;40818;50.562;7.454;2024-02-21T10:32:26;97896.94;;;7.40;100.00
54918;BME280;40818;50.562;7.454;2024-02-21T10:42:31;97880.19;;;7.65;100.00
54918;BME280;40818;50.562;7.454;2024-02-21T10:52:47;97883.75;;;7.62;100.00
54918;BME280;40818;50.562;7.454;2024-02-21T11:02:52;97878.16;;;7.88;100.00
54918;BME280;40818;50.562;7.454;2024-02-21T11:13:07;97873.03;;;8.03;100.00
54918;BME280;40818;50.562;7.454;2024-02-21T11:23:11;97854.06;;;7.87;100.00
54918;BME280;40818;50.562;7.454;2024-02-21T11:33:17;97839.56;;;7.84;100.00
54918;BME280;40818;50.562;7.454;2024-02-21T11:43:20;97809.34;;;8.18;100.00
54918;BME280;40818;50.562;7.454;2024-02-21T11:53:27;97748.59;;;8.26;100.00
54918;BME280;40818;50.562;7.454;2024-02-21T12:03:31;97723.91;;;8.20;100.00
54918;BME280;40818;50.562;7.454;2024-02-21T12:13:38;97713.81;;;7.83;100.00
54918;BME280;40818;50.562;7.454;2024-02-21T12:23:42;97696.50;;;7.85;100.00
54918;BME280;40818;50.562;7.454;2024-02-21T12:33:50;97682.50;;;7.90;100.00
54918;BME280;40818;50.562;7.454;2024-02-21T12:43:54;97661.25;;;7.68;100.00
54918;BME280;40818;50.562;7.454;2024-02-21T12:54:00;97635.72;;;7.62;100.00
54918;BME280;40818;50.562;7.454;2024-02-21T13:04:03;97623.75;;;7.61;100.00
54918;BME280;40818;50.562;7.454;2024-02-21T13:14:10;97599.72;;;7.75;100.00
54918;BME280;40818;50.562;7.454;2024-02-21T13:24:14;97552.63;;;7.70;100.00
54918;BME280;40818;50.562;7.454;2024-02-21T13:34:20;97516.97;;;7.61;100.00
54918;BME280;40818;50.562;7.454;2024-02-21T13:44:23;97475.25;;;7.52;100.00
54918;BME280;40818;50.562;7.454;2024-02-21T13:54:29;97429.06;;;7.32;100.00
54918;BME280;40818;50.562;7.454;2024-02-21T14:04:33;97415.63;;;7.41;100.00
54918;BME280;40818;50.562;7.454;2024-02-21T14:14:39;97446.28;;;7.47;100.00
54918;BME280;40818;50.562;7.454;2024-02-21T14:24:44;97404.78;;;7.50;100.00
54918;BME280;40818;50.562;7.454;2024-02-21T14:34:51;97375.03;;;7.29;100.00
54918;BME280;40818;50.562;7.454;2024-02-21T14:44:54;97351.16;;;7.25;100.00
54918;BME280;40818;50.562;7.454;2024-02-21T14:55:07;97339.72;;;7.29;100.00
54918;BME280;40818;50.562;7.454;2024-02-21T15:05:10;97326.06;;;7.27;100.00
54918;BME280;40818;50.562;7.454;2024-02-21T15:15:17;97329.66;;;7.25;100.00
54918;BME280;40818;50.562;7.454;2024-02-21T15:25:20;97311.19;;;7.16;100.00
54918;BME280;40818;50.562;7.454;2024-02-21T15:35:27;97264.34;;;7.08;100.00
54918;BME280;40818;50.562;7.454;2024-02-21T15:45:30;97254.28;;;7.04;100.00
54918;BME280;40818;50.562;7.454;2024-02-21T15:55:36;97230.25;;;7.03;98.97
54918;BME280;40818;50.562;7.454;2024-02-21T16:05:41;97227.09;;;6.98;99.45
54918;BME280;40818;50.562;7.454;2024-02-21T16:15:47;97200.00;;;6.91;98.88
54918;BME280;40818;50.562;7.454;2024-02-21T16:25:51;97178.88;;;6.84;98.98
54918;BME280;40818;50.562;7.454;2024-02-21T16:35:57;97168.84;;;6.79;98.54
54918;BME280;40818;50.562;7.454;2024-02-21T16:46:00;97140.00;;;6.73;99.41
54918;BME280;40818;50.562;7.454;2024-02-21T16:56:07;97132.69;;;6.65;99.37
54918;BME280;40818;50.562;7.454;2024-02-21T17:06:12;97114.75;;;6.63;100.00
54918;BME280;40818;50.562;7.454;2024-02-21T17:16:18;97116.69;;;6.60;99.29
54918;BME280;40818;50.562;7.454;2024-02-21T17:26:21;97090.22;;;6.56;99.28
54918;BME280;40818;50.562;7.454;2024-02-21T17:36:29;97088.66;;;6.54;100.00
54918;BME280;40818;50.562;7.454;2024-02-21T17:46:32;97099.16;;;6.51;100.00
54918;BME280;40818;50.562;7.454;2024-02-21T17:56:45;97075.75;;;6.39;100.00
54918;BME280;40818;50.562;7.454;2024-02-21T18:06:48;97071.72;;;6.35;100.00
54918;BME280;40818;50.562;7.454;2024-02-21T18:16:54;97021.88;;;6.20;100.00
54918;BME280;40818;50.562;7.454;2024-02-21T18:26:58;96979.72;;;6.21;100.00
54918;BME280;40818;50.562;7.454;2024-02-21T18:37:04;96963.41;;;6.21;100.00
54918;BME280;40818;50.562;7.454;2024-02-21T18:47:08;96941.78;;;6.23;100.00
54918;BME280;40818;50.562;7.454;2024-02-21T18:57:16;96933.97;;;6.25;100.00
54918;BME280;40818;50.562;7.454;2024-02-21T19:07:20;96893.47;;;6.27;100.00
54918;BME280;40818;50.562;7.454;2024-02-21T19:17:26;96862.75;;;6.24;100.00
54918;BME280;40818;50.562;7.454;2024-02-21T19:27:30;96857.22;;;6.15;100.00
54918;BME280;40818;50.562;7.454;2024-02-21T19:37:36;96850.88;;;6.07;100.00
54918;BME280;40818;50.562;7.454;2024-02-21T19:47:39;96855.50;;;6.02;100.00
54918;BME280;40818;50.562;7.454;2024-02-21T19:57:46;96847.19;;;5.96;100.00
54918;BME280;40818;50.562;7.454;2024-02-21T20:07:50;96816.53;;;5.77;100.00
54918;BME280;40818;50.562;7.454;2024-02-21T20:17:56;96784.09;;;5.60;100.00
54918;BME280;40818;50.562;7.454;2024-02-21T20:28:00;96759.75;;;5.52;100.00
54918;BME280;40818;50.562;7.454;2024-02-21T20:38:07;96746.31;;;5.46;100.00
54918;BME280;40818;50.562;7.454;2024-02-21T20:48:10;96739.34;;;5.49;100.00
54918;BME280;40818;50.562;7.454;2024-02-21T20:58:16;96728.50;;;5.43;100.00
54918;BME280;40818;50.562;7.454;2024-02-21T21:08:19;96722.53;;;5.43;100.00
54918;BME280;40818;50.562;7.454;2024-02-21T21:18:25;96710.66;;;5.40;100.00
54918;BME280;40818;50.562;7.454;2024-02-21T21:28:31;96696.44;;;5.35;100.00
54918;BME280;40818;50.562;7.454;2024-02-21T21:38:37;96682.63;;;5.36;100.00
54918;BME280;40818;50.562;7.454;2024-02-21T21:48:41;96655.88;;;5.38;100.00
54918;BME280;40818;50.562;7.454;2024-02-21T21:58:48;96629.50;;;5.35;100.00
54918;BME280;40818;50.562;7.454;2024-02-21T22:08:52;96616.75;;;5.33;100.00
54918;BME280;40818;50.562;7.454;2024-02-21T22:18:57;96595.09;;;5.36;100.00
54918;BME280;40818;50.562;7.454;2024-02-21T22:29:02;96580.31;;;5.39;100.00
54918;BME280;40818;50.562;7.454;2024-02-21T22:39:08;96561.28;;;5.42;100.00
54918;BME280;40818;50.562;7.454;2024-02-21T22:49:12;96551.81;;;5.42;100.00
54918;BME280;40818;50.562;7.454;2024-02-21T22:59:18;96519.09;;;5.44;100.00
54918;BME280;40818;50.562;7.454;2024-02-21T23:09:21;96506.72;;;5.50;100.00
54918;BME280;40818;50.562;7.454;2024-02-21T23:19:27;96490.34;;;5.51;100.00
54918;BME280;40818;50.562;7.454;2024-02-21T23:29:30;96474.72;;;5.54;100.00
54918;BME280;40818;50.562;7.454;2024-02-21T23:39:36;96451.16;;;5.60;100.00
54918;BME280;40818;50.562;7.454;2024-02-21T23:49:40;96425.09;;;5.64;100.00
54918;BME280;40818;50.562;7.454;2024-02-21T23:59:46;96414.78;;;5.64;100.00
